sensor_id;sensor_type;location;lat;lon;timestamp;pressure;altitude;pressure_sealevel;temperature;humidity
71948;BME280;63257;55.082;38.772;2023-02-13T00:02:17;100229.97;;;-8.76;78.95
71948;BME280;63257;55.082;38.772;2023-02-13T00:04:43;100221.16;;;-8.85;79.75
71948;BME280;63257;55.082;38.772;2023-02-13T00:07:11;100229.13;;;-8.76;79.60
71948;BME280;63257;55.082;38.772;2023-02-13T00:09:37;100218.00;;;-8.77;79.48
71948;BME280;63257;55.082;38.772;2023-02-13T00:12:04;100213.53;;;-8.84;79.28
71948;BME280;63257;55.082;38.772;2023-02-13T00:14:34;100211.81;;;-8.83;79.99
71948;BME280;63257;55.082;38.772;2023-02-13T00:17:00;100214.47;;;-8.82;79.43
71948;BME280;63257;55.082;38.772;2023-02-13T00:19:26;100197.38;;;-8.83;79.72
71948;BME280;63257;55.082;38.772;2023-02-13T00:21:52;100198.41;;;-8.76;79.37
71948;BME280;63257;55.082;38.772;2023-02-13T00:24:18;100187.31;;;-8.75;79.38
71948;BME280;63257;55.082;38.772;2023-02-13T00:26:44;100184.00;;;-8.73;79.11
71948;BME280;63257;55.082;38.772;2023-02-13T00:29:10;100147.00;;;-8.84;79.48
71948;BME280;63257;55.082;38.772;2023-02-13T00:31:37;100169.72;;;-8.64;79.27
71948;BME280;63257;55.082;38.772;2023-02-13T00:34:03;100164.44;;;-8.71;79.33
71948;BME280;63257;55.082;38.772;2023-02-13T00:36:29;100173.06;;;-8.67;79.48
71948;BME280;63257;55.082;38.772;2023-02-13T00:38:55;100167.88;;;-8.70;79.43
71948;BME280;63257;55.082;38.772;2023-02-13T00:41:21;100163.44;;;-8.76;79.39
71948;BME280;63257;55.082;38.772;2023-02-13T00:43:47;100163.53;;;-8.73;78.75
71948;BME280;63257;55.082;38.772;2023-02-13T00:46:14;100154.22;;;-8.71;78.75
71948;BME280;63257;55.082;38.772;2023-02-13T00:48:40;100153.22;;;-8.76;78.52
71948;BME280;63257;55.082;38.772;2023-02-13T00:51:08;100160.22;;;-8.68;78.63
71948;BME280;63257;55.082;38.772;2023-02-13T00:53:35;100164.38;;;-8.74;78.72
71948;BME280;63257;55.082;38.772;2023-02-13T00:56:01;100135.03;;;-8.85;78.58
71948;BME280;63257;55.082;38.772;2023-02-13T00:58:30;100128.06;;;-8.91;78.72
71948;BME280;63257;55.082;38.772;2023-02-13T01:00:57;100134.94;;;-8.88;78.50
71948;BME280;63257;55.082;38.772;2023-02-13T01:03:24;100154.13;;;-8.74;78.40
71948;BME280;63257;55.082;38.772;2023-02-13T01:05:50;100117.44;;;-9.05;78.10
71948;BME280;63257;55.082;38.772;2023-02-13T01:08:18;100158.22;;;-8.80;77.40
71948;BME280;63257;55.082;38.772;2023-02-13T01:10:47;100135.53;;;-8.98;77.75
71948;BME280;63257;55.082;38.772;2023-02-13T01:13:14;100142.41;;;-8.96;77.36
71948;BME280;63257;55.082;38.772;2023-02-13T01:15:41;100148.72;;;-8.84;77.53
71948;BME280;63257;55.082;38.772;2023-02-13T01:18:06;100145.25;;;-8.85;77.50
71948;BME280;63257;55.082;38.772;2023-02-13T01:20:34;100150.31;;;-8.88;77.25
71948;BME280;63257;55.082;38.772;2023-02-13T01:23:00;100155.63;;;-8.82;76.93
71948;BME280;63257;55.082;38.772;2023-02-13T01:25:26;100149.59;;;-8.82;77.32
71948;BME280;63257;55.082;38.772;2023-02-13T01:27:53;100143.78;;;-8.77;76.94
71948;BME280;63257;55.082;38.772;2023-02-13T01:30:19;100133.75;;;-8.71;76.79
71948;BME280;63257;55.082;38.772;2023-02-13T01:32:46;100138.84;;;-8.71;76.69
71948;BME280;63257;55.082;38.772;2023-02-13T01:35:14;100131.50;;;-8.58;76.15
71948;BME280;63257;55.082;38.772;2023-02-13T01:37:41;100102.63;;;-8.86;76.25
71948;BME280;63257;55.082;38.772;2023-02-13T01:40:10;100131.88;;;-8.43;75.82
71948;BME280;63257;55.082;38.772;2023-02-13T01:42:38;100113.09;;;-8.45;75.31
71948;BME280;63257;55.082;38.772;2023-02-13T01:45:18;100110.66;;;-8.39;75.29
71948;BME280;63257;55.082;38.772;2023-02-13T01:47:50;100113.19;;;-8.40;75.52
71948;BME280;63257;55.082;38.772;2023-02-13T01:50:29;100089.94;;;-8.49;75.55
71948;BME280;63257;55.082;38.772;2023-02-13T01:53:05;100089.19;;;-8.44;75.31
71948;BME280;63257;55.082;38.772;2023-02-13T01:55:35;100100.66;;;-8.29;75.19
71948;BME280;63257;55.082;38.772;2023-02-13T01:58:12;100094.03;;;-8.21;75.52
71948;BME280;63257;55.082;38.772;2023-02-13T02:00:39;100111.34;;;-8.11;74.95
71948;BME280;63257;55.082;38.772;2023-02-13T02:03:11;100103.84;;;-8.05;74.46
71948;BME280;63257;55.082;38.772;2023-02-13T02:05:40;100103.19;;;-7.96;74.32
71948;BME280;63257;55.082;38.772;2023-02-13T02:08:10;100100.63;;;-7.96;74.62
71948;BME280;63257;55.082;38.772;2023-02-13T02:10:37;100097.38;;;-7.89;74.42
71948;BME280;63257;55.082;38.772;2023-02-13T02:13:11;100087.22;;;-7.86;74.34
71948;BME280;63257;55.082;38.772;2023-02-13T02:15:40;100069.28;;;-7.86;74.61
71948;BME280;63257;55.082;38.772;2023-02-13T02:18:25;100066.03;;;-7.77;74.26
71948;BME280;63257;55.082;38.772;2023-02-13T02:29:34;100077.31;;;-7.30;72.98
71948;BME280;63257;55.082;38.772;2023-02-13T02:43:54;100056.41;;;-7.49;72.08
71948;BME280;63257;55.082;38.772;2023-02-13T02:49:05;100028.03;;;-7.58;71.49
71948;BME280;63257;55.082;38.772;2023-02-13T02:52:16;100044.97;;;-7.65;72.07
71948;BME280;63257;55.082;38.772;2023-02-13T02:54:50;100026.84;;;-7.73;72.15
71948;BME280;63257;55.082;38.772;2023-02-13T02:57:34;100016.63;;;-7.71;72.28
71948;BME280;63257;55.082;38.772;2023-02-13T03:00:22;100013.16;;;-7.73;72.36
71948;BME280;63257;55.082;38.772;2023-02-13T03:03:19;100018.56;;;-7.61;71.92
71948;BME280;63257;55.082;38.772;2023-02-13T03:06:21;100016.00;;;-7.61;71.75
71948;BME280;63257;55.082;38.772;2023-02-13T03:08:54;100013.19;;;-7.72;71.92
71948;BME280;63257;55.082;38.772;2023-02-13T03:11:41;100010.78;;;-7.64;71.79
71948;BME280;63257;55.082;38.772;2023-02-13T03:14:27;100009.03;;;-7.67;71.78
71948;BME280;63257;55.082;38.772;2023-02-13T03:16:54;100003.66;;;-7.79;72.41
71948;BME280;63257;55.082;38.772;2023-02-13T03:25:29;99999.19;;;-7.86;72.51
71948;BME280;63257;55.082;38.772;2023-02-13T03:28:21;100002.97;;;-7.70;72.37
71948;BME280;63257;55.082;38.772;2023-02-13T03:34:01;99987.44;;;-7.76;72.72
71948;BME280;63257;55.082;38.772;2023-02-13T03:36:46;99985.00;;;-7.72;72.98
71948;BME280;63257;55.082;38.772;2023-02-13T03:39:43;99975.56;;;-7.73;72.85
71948;BME280;63257;55.082;38.772;2023-02-13T03:44:50;99981.47;;;-7.77;73.15
71948;BME280;63257;55.082;38.772;2023-02-13T03:47:40;99989.41;;;-7.64;73.02
71948;BME280;63257;55.082;38.772;2023-02-13T03:50:09;99971.38;;;-7.71;72.76
71948;BME280;63257;55.082;38.772;2023-02-13T03:52:50;99977.53;;;-7.61;73.34
71948;BME280;63257;55.082;38.772;2023-02-13T03:55:21;99970.84;;;-7.54;72.81
71948;BME280;63257;55.082;38.772;2023-02-13T03:58:11;99967.44;;;-7.53;72.79
71948;BME280;63257;55.082;38.772;2023-02-13T04:00:59;99961.53;;;-7.49;73.02
71948;BME280;63257;55.082;38.772;2023-02-13T04:03:43;99951.53;;;-7.35;72.74
71948;BME280;63257;55.082;38.772;2023-02-13T04:06:16;99952.69;;;-7.19;72.54
71948;BME280;63257;55.082;38.772;2023-02-13T04:08:44;99945.84;;;-7.20;71.73
71948;BME280;63257;55.082;38.772;2023-02-13T04:11:17;99944.44;;;-7.03;71.64
71948;BME280;63257;55.082;38.772;2023-02-13T04:14:00;99938.50;;;-7.00;70.94
71948;BME280;63257;55.082;38.772;2023-02-13T04:19:01;99947.31;;;-6.86;69.20
71948;BME280;63257;55.082;38.772;2023-02-13T04:21:32;99947.97;;;-6.97;67.68
71948;BME280;63257;55.082;38.772;2023-02-13T04:23:58;99927.03;;;-7.19;67.66
71948;BME280;63257;55.082;38.772;2023-02-13T04:26:24;99937.47;;;-7.10;66.89
71948;BME280;63257;55.082;38.772;2023-02-13T04:28:53;99940.94;;;-7.08;67.07
71948;BME280;63257;55.082;38.772;2023-02-13T04:31:19;99934.88;;;-7.13;67.59
71948;BME280;63257;55.082;38.772;2023-02-13T04:33:45;99932.53;;;-7.01;67.56
71948;BME280;63257;55.082;38.772;2023-02-13T04:36:11;99934.13;;;-7.06;67.84
71948;BME280;63257;55.082;38.772;2023-02-13T04:38:36;99925.66;;;-7.02;68.35
71948;BME280;63257;55.082;38.772;2023-02-13T04:41:03;99904.91;;;-7.14;69.42
71948;BME280;63257;55.082;38.772;2023-02-13T04:43:29;99910.25;;;-7.03;69.96
71948;BME280;63257;55.082;38.772;2023-02-13T04:45:55;99909.28;;;-7.08;70.65
71948;BME280;63257;55.082;38.772;2023-02-13T04:48:21;99911.13;;;-7.01;70.66
71948;BME280;63257;55.082;38.772;2023-02-13T04:50:46;99907.50;;;-7.12;70.66
71948;BME280;63257;55.082;38.772;2023-02-13T04:53:12;99929.06;;;-7.03;70.56
71948;BME280;63257;55.082;38.772;2023-02-13T04:55:38;99911.03;;;-7.07;71.06
71948;BME280;63257;55.082;38.772;2023-02-13T04:58:04;99911.91;;;-7.05;71.10
71948;BME280;63257;55.082;38.772;2023-02-13T05:00:30;99914.25;;;-7.18;71.23
71948;BME280;63257;55.082;38.772;2023-02-13T05:03:03;99914.94;;;-7.28;71.38
71948;BME280;63257;55.082;38.772;2023-02-13T05:05:29;99915.75;;;-7.29;71.54
71948;BME280;63257;55.082;38.772;2023-02-13T05:07:55;99918.31;;;-7.29;71.67
71948;BME280;63257;55.082;38.772;2023-02-13T05:10:21;99909.00;;;-7.25;71.42
71948;BME280;63257;55.082;38.772;2023-02-13T05:12:47;99918.69;;;-7.09;71.07
71948;BME280;63257;55.082;38.772;2023-02-13T05:15:13;99917.97;;;-7.02;71.03
71948;BME280;63257;55.082;38.772;2023-02-13T05:17:42;99912.13;;;-6.91;70.87
71948;BME280;63257;55.082;38.772;2023-02-13T05:20:09;99907.13;;;-6.85;71.18
71948;BME280;63257;55.082;38.772;2023-02-13T05:22:35;99897.69;;;-6.86;71.39
71948;BME280;63257;55.082;38.772;2023-02-13T05:25:20;99877.19;;;-6.83;71.51
71948;BME280;63257;55.082;38.772;2023-02-13T05:27:46;99869.41;;;-6.89;71.51
71948;BME280;63257;55.082;38.772;2023-02-13T05:30:12;99862.50;;;-6.93;71.19
71948;BME280;63257;55.082;38.772;2023-02-13T05:32:38;99881.59;;;-6.76;71.63
71948;BME280;63257;55.082;38.772;2023-02-13T05:35:04;99877.38;;;-6.71;71.85
71948;BME280;63257;55.082;38.772;2023-02-13T05:37:31;99868.25;;;-6.53;71.73
71948;BME280;63257;55.082;38.772;2023-02-13T05:39:57;99875.19;;;-6.46;71.33
71948;BME280;63257;55.082;38.772;2023-02-13T05:46:44;99888.38;;;-6.23;70.78
71948;BME280;63257;55.082;38.772;2023-02-13T05:49:12;99866.13;;;-6.22;70.58
71948;BME280;63257;55.082;38.772;2023-02-13T05:51:38;99840.34;;;-6.27;71.06
71948;BME280;63257;55.082;38.772;2023-02-13T05:54:04;99860.25;;;-6.12;70.45
71948;BME280;63257;55.082;38.772;2023-02-13T05:56:30;99862.03;;;-6.05;70.26
71948;BME280;63257;55.082;38.772;2023-02-13T05:58:56;99846.84;;;-5.83;70.15
71948;BME280;63257;55.082;38.772;2023-02-13T06:01:23;99842.69;;;-5.70;69.14
71948;BME280;63257;55.082;38.772;2023-02-13T06:03:49;99841.22;;;-5.50;68.76
71948;BME280;63257;55.082;38.772;2023-02-13T06:06:15;99833.56;;;-5.43;68.16
71948;BME280;63257;55.082;38.772;2023-02-13T06:08:42;99823.31;;;-5.40;68.06
71948;BME280;63257;55.082;38.772;2023-02-13T06:11:10;99825.94;;;-5.36;67.58
71948;BME280;63257;55.082;38.772;2023-02-13T06:13:36;99836.09;;;-5.48;67.39
71948;BME280;63257;55.082;38.772;2023-02-13T06:16:06;99840.38;;;-5.46;67.45
71948;BME280;63257;55.082;38.772;2023-02-13T06:18:33;99832.75;;;-5.38;67.33
71948;BME280;63257;55.082;38.772;2023-02-13T06:21:00;99838.03;;;-5.22;67.37
71948;BME280;63257;55.082;38.772;2023-02-13T06:23:26;99826.97;;;-5.15;67.16
71948;BME280;63257;55.082;38.772;2023-02-13T06:25:52;99830.50;;;-5.02;66.54
71948;BME280;63257;55.082;38.772;2023-02-13T06:28:17;99839.09;;;-5.00;66.60
71948;BME280;63257;55.082;38.772;2023-02-13T06:30:43;99818.41;;;-5.13;66.35
71948;BME280;63257;55.082;38.772;2023-02-13T06:33:10;99828.69;;;-5.13;66.55
71948;BME280;63257;55.082;38.772;2023-02-13T06:35:36;99825.28;;;-5.08;66.61
71948;BME280;63257;55.082;38.772;2023-02-13T06:38:02;99818.28;;;-5.26;67.22
71948;BME280;63257;55.082;38.772;2023-02-13T06:40:28;99793.34;;;-5.32;67.31
71948;BME280;63257;55.082;38.772;2023-02-13T06:42:54;99810.44;;;-5.39;67.19
71948;BME280;63257;55.082;38.772;2023-02-13T06:45:19;99797.56;;;-5.42;68.03
71948;BME280;63257;55.082;38.772;2023-02-13T06:47:46;99789.81;;;-5.48;68.03
71948;BME280;63257;55.082;38.772;2023-02-13T06:50:14;99786.44;;;-5.41;67.95
71948;BME280;63257;55.082;38.772;2023-02-13T06:52:48;99796.13;;;-5.12;67.45
71948;BME280;63257;55.082;38.772;2023-02-13T07:03:01;99785.13;;;-4.88;68.45
71948;BME280;63257;55.082;38.772;2023-02-13T07:05:27;99780.09;;;-4.74;67.97
71948;BME280;63257;55.082;38.772;2023-02-13T07:07:53;99781.75;;;-4.81;68.76
71948;BME280;63257;55.082;38.772;2023-02-13T07:17:56;99763.03;;;-4.52;68.96
71948;BME280;63257;55.082;38.772;2023-02-13T07:20:22;99754.41;;;-4.52;69.29
71948;BME280;63257;55.082;38.772;2023-02-13T07:22:48;99745.00;;;-4.46;69.17
71948;BME280;63257;55.082;38.772;2023-02-13T07:25:15;99745.06;;;-4.35;69.19
71948;BME280;63257;55.082;38.772;2023-02-13T07:27:40;99751.16;;;-4.16;69.16
71948;BME280;63257;55.082;38.772;2023-02-13T07:30:06;99758.91;;;-4.06;69.03
71948;BME280;63257;55.082;38.772;2023-02-13T07:32:33;99752.09;;;-3.77;68.48
71948;BME280;63257;55.082;38.772;2023-02-13T07:34:59;99734.06;;;-3.73;67.57
71948;BME280;63257;55.082;38.772;2023-02-13T07:37:27;99742.69;;;-3.47;66.76
71948;BME280;63257;55.082;38.772;2023-02-13T07:39:53;99735.81;;;-3.28;66.60
71948;BME280;63257;55.082;38.772;2023-02-13T07:42:19;99728.03;;;-3.23;66.17
71948;BME280;63257;55.082;38.772;2023-02-13T07:44:45;99721.19;;;-3.33;66.26
71948;BME280;63257;55.082;38.772;2023-02-13T07:47:11;99726.34;;;-3.41;67.00
71948;BME280;63257;55.082;38.772;2023-02-13T07:49:36;99728.91;;;-3.41;67.17
71948;BME280;63257;55.082;38.772;2023-02-13T07:52:04;99718.63;;;-3.38;67.66
71948;BME280;63257;55.082;38.772;2023-02-13T07:54:30;99698.81;;;-3.58;67.65
71948;BME280;63257;55.082;38.772;2023-02-13T07:56:57;99713.44;;;-3.38;67.69
71948;BME280;63257;55.082;38.772;2023-02-13T07:59:23;99710.00;;;-3.49;68.09
71948;BME280;63257;55.082;38.772;2023-02-13T08:01:50;99703.94;;;-3.81;68.66
71948;BME280;63257;55.082;38.772;2023-02-13T08:04:15;99701.41;;;-3.64;69.08
71948;BME280;63257;55.082;38.772;2023-02-13T08:06:43;99695.38;;;-3.53;68.89
71948;BME280;63257;55.082;38.772;2023-02-13T08:09:19;99667.84;;;-3.70;69.15
71948;BME280;63257;55.082;38.772;2023-02-13T08:12:06;99678.16;;;-3.58;69.39
71948;BME280;63257;55.082;38.772;2023-02-13T08:14:32;99668.72;;;-3.59;69.73
71948;BME280;63257;55.082;38.772;2023-02-13T08:16:58;99682.47;;;-3.49;69.45
71948;BME280;63257;55.082;38.772;2023-02-13T08:19:26;99685.03;;;-3.43;69.74
71948;BME280;63257;55.082;38.772;2023-02-13T08:21:53;99667.00;;;-3.44;69.39
71948;BME280;63257;55.082;38.772;2023-02-13T08:24:18;99667.84;;;-3.44;69.82
71948;BME280;63257;55.082;38.772;2023-02-13T08:26:44;99660.13;;;-3.51;70.21
71948;BME280;63257;55.082;38.772;2023-02-13T08:29:10;99668.69;;;-3.25;70.15
71948;BME280;63257;55.082;38.772;2023-02-13T08:31:37;99665.25;;;-3.28;70.11
71948;BME280;63257;55.082;38.772;2023-02-13T08:34:03;99664.38;;;-3.10;69.73
71948;BME280;63257;55.082;38.772;2023-02-13T08:36:29;99660.00;;;-2.90;68.96
71948;BME280;63257;55.082;38.772;2023-02-13T08:38:55;99650.53;;;-2.92;68.43
71948;BME280;63257;55.082;38.772;2023-02-13T08:41:21;99646.22;;;-2.84;68.92
71948;BME280;63257;55.082;38.772;2023-02-13T08:43:48;99651.34;;;-2.73;68.71
71948;BME280;63257;55.082;38.772;2023-02-13T08:46:16;99615.16;;;-2.78;68.46
71948;BME280;63257;55.082;38.772;2023-02-13T08:48:42;99633.09;;;-2.39;68.24
71948;BME280;63257;55.082;38.772;2023-02-13T08:51:12;99636.44;;;-2.25;67.99
71948;BME280;63257;55.082;38.772;2023-02-13T08:53:38;99622.69;;;-2.27;68.17
71948;BME280;63257;55.082;38.772;2023-02-13T08:56:05;99621.06;;;-2.43;68.13
71948;BME280;63257;55.082;38.772;2023-02-13T08:58:31;99626.16;;;-2.29;67.99
71948;BME280;63257;55.082;38.772;2023-02-13T09:00:57;99621.78;;;-2.19;67.90
71948;BME280;63257;55.082;38.772;2023-02-13T09:03:23;99617.25;;;-1.90;67.48
71948;BME280;63257;55.082;38.772;2023-02-13T09:05:49;99613.00;;;-2.00;66.72
71948;BME280;63257;55.082;38.772;2023-02-13T09:08:16;99582.78;;;-1.93;66.52
71948;BME280;63257;55.082;38.772;2023-02-13T09:10:41;99596.53;;;-1.88;66.11
71948;BME280;63257;55.082;38.772;2023-02-13T09:13:10;99581.03;;;-1.88;66.47
71948;BME280;63257;55.082;38.772;2023-02-13T09:15:38;99575.03;;;-1.95;66.78
71948;BME280;63257;55.082;38.772;2023-02-13T09:18:07;99576.69;;;-1.86;66.20
71948;BME280;63257;55.082;38.772;2023-02-13T09:20:33;99560.34;;;-1.90;66.49
71948;BME280;63257;55.082;38.772;2023-02-13T09:22:59;99577.53;;;-1.87;66.90
71948;BME280;63257;55.082;38.772;2023-02-13T09:25:25;99573.38;;;-2.05;67.30
71948;BME280;63257;55.082;38.772;2023-02-13T09:27:50;99569.91;;;-2.01;67.19
71948;BME280;63257;55.082;38.772;2023-02-13T09:30:16;99557.84;;;-2.00;67.65
71948;BME280;63257;55.082;38.772;2023-02-13T09:32:48;99554.34;;;-1.95;67.63
71948;BME280;63257;55.082;38.772;2023-02-13T09:35:15;99544.94;;;-2.02;67.94
71948;BME280;63257;55.082;38.772;2023-02-13T09:37:41;99523.53;;;-2.24;68.39
71948;BME280;63257;55.082;38.772;2023-02-13T09:40:44;99548.34;;;-2.00;68.56
71948;BME280;63257;55.082;38.772;2023-02-13T09:43:17;99532.78;;;-1.97;68.19
71948;BME280;63257;55.082;38.772;2023-02-13T09:45:49;99543.88;;;-1.82;68.06
71948;BME280;63257;55.082;38.772;2023-02-13T09:48:42;99540.34;;;-1.74;68.06
71948;BME280;63257;55.082;38.772;2023-02-13T09:51:17;99531.19;;;-2.09;68.82
71948;BME280;63257;55.082;38.772;2023-02-13T09:53:59;99525.13;;;-2.08;69.29
71948;BME280;63257;55.082;38.772;2023-02-13T10:16:29;99519.91;;;-2.01;71.32
71948;BME280;63257;55.082;38.772;2023-02-13T10:21:55;99505.38;;;-2.15;71.89
71948;BME280;63257;55.082;38.772;2023-02-13T10:24:37;99504.53;;;-2.20;72.88
71948;BME280;63257;55.082;38.772;2023-02-13T10:27:24;99483.75;;;-2.09;72.31
71948;BME280;63257;55.082;38.772;2023-02-13T10:35:15;99480.94;;;-1.81;71.53
71948;BME280;63257;55.082;38.772;2023-02-13T10:37:43;99484.28;;;-1.75;71.68
71948;BME280;63257;55.082;38.772;2023-02-13T10:40:11;99482.50;;;-1.68;71.96
71948;BME280;63257;55.082;38.772;2023-02-13T10:42:49;99473.94;;;-1.73;71.45
71948;BME280;63257;55.082;38.772;2023-02-13T10:52:10;99462.25;;;-1.35;72.32
71948;BME280;63257;55.082;38.772;2023-02-13T10:54:58;99440.97;;;-1.57;71.74
71948;BME280;63257;55.082;38.772;2023-02-13T11:00:12;99457.03;;;-1.29;71.52
71948;BME280;63257;55.082;38.772;2023-02-13T11:02:41;99446.69;;;-1.30;72.17
71948;BME280;63257;55.082;38.772;2023-02-13T11:05:17;99457.84;;;-1.27;71.58
71948;BME280;63257;55.082;38.772;2023-02-13T11:07:46;99430.19;;;-1.23;71.86
71948;BME280;63257;55.082;38.772;2023-02-13T11:10:16;99449.38;;;-1.38;72.22
71948;BME280;63257;55.082;38.772;2023-02-13T11:17:16;99433.78;;;-1.35;72.78
71948;BME280;63257;55.082;38.772;2023-02-13T11:19:52;99434.53;;;-1.24;72.06
71948;BME280;63257;55.082;38.772;2023-02-13T11:22:38;99444.06;;;-1.27;72.09
71948;BME280;63257;55.082;38.772;2023-02-13T11:29:30;99421.75;;;-1.39;72.46
71948;BME280;63257;55.082;38.772;2023-02-13T11:32:02;99418.88;;;-1.17;72.40
71948;BME280;63257;55.082;38.772;2023-02-13T11:34:30;99414.56;;;-1.18;72.36
71948;BME280;63257;55.082;38.772;2023-02-13T11:37:27;99406.66;;;-1.08;71.78
71948;BME280;63257;55.082;38.772;2023-02-13T11:39:55;99400.59;;;-1.07;71.99
71948;BME280;63257;55.082;38.772;2023-02-13T11:42:26;99404.22;;;-1.18;71.85
71948;BME280;63257;55.082;38.772;2023-02-13T11:45:02;99385.16;;;-1.11;72.00
71948;BME280;63257;55.082;38.772;2023-02-13T11:47:37;99385.78;;;-0.97;71.34
71948;BME280;63257;55.082;38.772;2023-02-13T11:50:18;99365.06;;;-0.97;71.27
71948;BME280;63257;55.082;38.772;2023-02-13T11:52:54;99379.59;;;-0.87;71.12
71948;BME280;63257;55.082;38.772;2023-02-13T11:55:36;99378.34;;;-0.64;70.56
71948;BME280;63257;55.082;38.772;2023-02-13T11:58:22;99361.06;;;-0.65;70.07
71948;BME280;63257;55.082;38.772;2023-02-13T12:00:48;99353.34;;;-0.66;70.29
71948;BME280;63257;55.082;38.772;2023-02-13T12:03:27;99345.00;;;-0.86;70.78
71948;BME280;63257;55.082;38.772;2023-02-13T12:08:37;99333.88;;;-0.91;71.68
71948;BME280;63257;55.082;38.772;2023-02-13T12:11:16;99356.25;;;-0.85;72.02
71948;BME280;63257;55.082;38.772;2023-02-13T12:13:45;99352.63;;;-0.76;72.09
71948;BME280;63257;55.082;38.772;2023-02-13T12:19:02;99372.81;;;-0.97;72.79
71948;BME280;63257;55.082;38.772;2023-02-13T12:27:48;99363.13;;;-0.84;72.24
71948;BME280;63257;55.082;38.772;2023-02-13T12:42:25;99327.13;;;-1.01;72.86
71948;BME280;63257;55.082;38.772;2023-02-13T12:47:25;99333.16;;;-0.99;72.70
71948;BME280;63257;55.082;38.772;2023-02-13T12:52:38;99332.22;;;-0.95;73.29
71948;BME280;63257;55.082;38.772;2023-02-13T12:55:23;99346.03;;;-0.94;73.68
71948;BME280;63257;55.082;38.772;2023-02-13T13:06:17;99333.97;;;-0.97;73.98
71948;BME280;63257;55.082;38.772;2023-02-13T13:17:17;99292.63;;;-1.05;75.17
71948;BME280;63257;55.082;38.772;2023-02-13T13:22:33;99280.56;;;-1.04;75.11
71948;BME280;63257;55.082;38.772;2023-02-13T13:25:17;99283.19;;;-1.07;75.95
71948;BME280;63257;55.082;38.772;2023-02-13T13:27:48;99285.66;;;-0.99;76.08
71948;BME280;63257;55.082;38.772;2023-02-13T13:30:31;99274.44;;;-1.00;76.02
71948;BME280;63257;55.082;38.772;2023-02-13T13:33:21;99273.66;;;-1.05;76.60
71948;BME280;63257;55.082;38.772;2023-02-13T13:41:45;99266.16;;;-1.21;76.51
71948;BME280;63257;55.082;38.772;2023-02-13T13:44:41;99270.13;;;-1.01;76.64
71948;BME280;63257;55.082;38.772;2023-02-13T13:49:55;99267.56;;;-1.03;76.85
71948;BME280;63257;55.082;38.772;2023-02-13T13:52:23;99270.84;;;-0.93;76.51
71948;BME280;63257;55.082;38.772;2023-02-13T13:54:51;99261.41;;;-0.95;76.29
71948;BME280;63257;55.082;38.772;2023-02-13T14:05:33;99254.38;;;-0.89;76.29
71948;BME280;63257;55.082;38.772;2023-02-13T14:13:59;99253.63;;;-0.95;77.26
71948;BME280;63257;55.082;38.772;2023-02-13T14:16:45;99250.25;;;-1.00;77.63
71948;BME280;63257;55.082;38.772;2023-02-13T14:24:57;99238.97;;;-0.95;77.47
71948;BME280;63257;55.082;38.772;2023-02-13T14:27:29;99243.13;;;-0.88;78.24
71948;BME280;63257;55.082;38.772;2023-02-13T14:29:59;99244.88;;;-0.90;77.74
71948;BME280;63257;55.082;38.772;2023-02-13T14:32:31;99245.56;;;-0.78;77.63
71948;BME280;63257;55.082;38.772;2023-02-13T14:38:01;99223.00;;;-0.73;77.70
71948;BME280;63257;55.082;38.772;2023-02-13T14:40:50;99204.91;;;-0.76;77.99
71948;BME280;63257;55.082;38.772;2023-02-13T14:43:29;99188.78;;;-0.91;78.23
71948;BME280;63257;55.082;38.772;2023-02-13T14:49:02;99206.78;;;-0.83;78.84
71948;BME280;63257;55.082;38.772;2023-02-13T14:51:39;99212.56;;;-0.69;78.22
71948;BME280;63257;55.082;38.772;2023-02-13T15:01:29;99207.13;;;-0.56;77.79
71948;BME280;63257;55.082;38.772;2023-02-13T15:06:57;99185.53;;;-0.57;77.90
71948;BME280;63257;55.082;38.772;2023-02-13T15:09:37;99191.72;;;-0.64;77.50
71948;BME280;63257;55.082;38.772;2023-02-13T15:12:23;99180.41;;;-0.60;77.72
71948;BME280;63257;55.082;38.772;2023-02-13T15:14:50;99181.16;;;-0.53;77.53
71948;BME280;63257;55.082;38.772;2023-02-13T15:17:25;99178.50;;;-0.52;77.62
71948;BME280;63257;55.082;38.772;2023-02-13T15:20:02;99150.38;;;-0.70;77.51
71948;BME280;63257;55.082;38.772;2023-02-13T15:22:38;99162.19;;;-0.57;77.72
71948;BME280;63257;55.082;38.772;2023-02-13T15:25:07;99155.03;;;-0.44;77.37
71948;BME280;63257;55.082;38.772;2023-02-13T15:27:40;99165.38;;;-0.42;76.85
71948;BME280;63257;55.082;38.772;2023-02-13T15:34:48;99138.75;;;-0.50;77.98
71948;BME280;63257;55.082;38.772;2023-02-13T15:37:21;99127.69;;;-0.59;77.81
71948;BME280;63257;55.082;38.772;2023-02-13T15:39:48;99132.94;;;-0.63;78.19
71948;BME280;63257;55.082;38.772;2023-02-13T15:42:14;99131.34;;;-0.69;78.44
71948;BME280;63257;55.082;38.772;2023-02-13T15:44:45;99107.22;;;-0.71;78.43
71948;BME280;63257;55.082;38.772;2023-02-13T15:47:29;99093.53;;;-0.78;79.19
71948;BME280;63257;55.082;38.772;2023-02-13T15:49:58;99113.28;;;-0.72;79.35
71948;BME280;63257;55.082;38.772;2023-02-13T15:52:33;99096.81;;;-0.70;79.21
71948;BME280;63257;55.082;38.772;2023-02-13T15:55:02;99100.38;;;-0.75;79.05
71948;BME280;63257;55.082;38.772;2023-02-13T15:57:30;99087.31;;;-0.71;78.95
71948;BME280;63257;55.082;38.772;2023-02-13T15:59:59;99087.25;;;-0.66;79.03
71948;BME280;63257;55.082;38.772;2023-02-13T16:02:39;99097.34;;;-0.55;79.28
71948;BME280;63257;55.082;38.772;2023-02-13T16:05:10;99093.13;;;-0.58;78.66
71948;BME280;63257;55.082;38.772;2023-02-13T16:10:23;99046.66;;;-0.67;78.71
71948;BME280;63257;55.082;38.772;2023-02-13T16:12:50;99056.06;;;-0.63;79.31
71948;BME280;63257;55.082;38.772;2023-02-13T16:15:19;99009.03;;;-0.85;79.23
71948;BME280;63257;55.082;38.772;2023-02-13T16:17:46;99052.63;;;-0.65;79.49
71948;BME280;63257;55.082;38.772;2023-02-13T16:22:44;99058.53;;;-0.58;79.01
71948;BME280;63257;55.082;38.772;2023-02-13T16:28:02;99048.25;;;-0.61;79.30
71948;BME280;63257;55.082;38.772;2023-02-13T16:30:35;99010.44;;;-0.72;79.31
71948;BME280;63257;55.082;38.772;2023-02-13T16:35:43;99025.69;;;-0.56;78.80
71948;BME280;63257;55.082;38.772;2023-02-13T16:43:54;99027.03;;;-0.40;78.80
71948;BME280;63257;55.082;38.772;2023-02-13T16:47:21;99015.88;;;-0.43;78.23